Time;durP1;ratioP1;P1;durP2;ratioP2;P2;SDS_P1;SDS_P2;PMS_P1;PMS_P2;Temp;Humidity;BMP_temperature;BMP_pressure;BME280_temperature;BME280_humidity;BME280_pressure;Samples;Min_cycle;Max_cycle;Signal;HPM_P1;HPM_P2
2023/12/03 00:02:22;;;;;;;0.40;0.40;;;;;;;;;;5074806;28;20128;-74
2023/12/03 00:04:49;;;;;;;0.75;0.75;;;;;;;;;;5074461;28;20060;-74
2023/12/03 00:07:15;;;;;;;0.98;0.88;;;;;;;;;;5074466;28;20049;-73
2023/12/03 00:09:42;;;;;;;0.43;0.43;;;;;;;;;;5075065;28;20053;-74
2023/12/03 00:12:08;;;;;;;1.27;0.40;;;;;;;;;;5074136;28;20048;-74
2023/12/03 00:14:37;;;;;;;0.60;0.60;;;;;;;;;;5074358;28;20044;-74
2023/12/03 00:17:03;;;;;;;0.30;0.30;;;;;;;;;;5073389;28;20044;-74
2023/12/03 00:19:29;;;;;;;0.38;0.38;;;;;;;;;;5073809;28;20087;-74
2023/12/03 00:21:55;;;;;;;0.35;0.35;;;;;;;;;;5073817;28;20045;-74
2023/12/03 00:24:22;;;;;;;0.43;0.43;;;;;;;;;;5093383;28;20120;-74
2023/12/03 00:26:48;;;;;;;4.95;0.50;;;;;;;;;;5092750;28;20052;-74
2023/12/03 00:29:15;;;;;;;0.52;0.52;;;;;;;;;;5093469;28;20494;-75
2023/12/03 00:31:41;;;;;;;0.30;0.30;;;;;;;;;;5092762;28;20047;-75
2023/12/03 00:34:07;;;;;;;0.30;0.30;;;;;;;;;;5078756;28;20059;-75
2023/12/03 00:36:33;;;;;;;0.43;0.43;;;;;;;;;;5093190;28;20083;-75
2023/12/03 00:38:59;;;;;;;0.32;0.32;;;;;;;;;;5093397;28;20047;-75
2023/12/03 00:41:26;;;;;;;0.82;0.63;;;;;;;;;;5093132;28;20077;-75
2023/12/03 00:43:51;;;;;;;;;;;;;;;;;;5080126;28;20513;-75
2023/12/03 00:46:19;;;;;;;0.45;0.45;;;;;;;;;;5092368;28;19960;-75
2023/12/03 00:48:45;;;;;;;0.40;0.40;;;;;;;;;;5080193;28;20075;-75
2023/12/03 00:51:11;;;;;;;1.45;0.88;;;;;;;;;;5092851;28;20071;-75
2023/12/03 00:53:37;;;;;;;0.30;0.30;;;;;;;;;;5093237;28;20051;-75
2023/12/03 00:56:03;;;;;;;0.43;0.43;;;;;;;;;;5124826;27;20647;-76
2023/12/03 00:58:30;;;;;;;0.30;0.30;;;;;;;;;;5092559;28;20055;-75
2023/12/03 01:00:56;;;;;;;0.32;0.32;;;;;;;;;;5089852;28;20066;-75
2023/12/03 01:03:22;;;;;;;0.43;0.40;;;;;;;;;;5092453;28;20048;-75
2023/12/03 01:05:48;;;;;;;0.30;0.30;;;;;;;;;;5090857;28;20051;-76
2023/12/03 01:08:14;;;;;;;0.30;0.30;;;;;;;;;;5092251;28;20483;-76
2023/12/03 01:10:41;;;;;;;0.30;0.30;;;;;;;;;;5091460;28;20060;-75
2023/12/03 01:13:07;;;;;;;0.45;0.45;;;;;;;;;;5092331;28;20510;-76
2023/12/03 01:15:33;;;;;;;0.30;0.30;;;;;;;;;;5092638;28;20040;-76
2023/12/03 01:17:59;;;;;;;0.30;0.30;;;;;;;;;;5091664;28;20548;-76
2023/12/03 01:20:25;;;;;;;1.00;1.00;;;;;;;;;;5091944;28;20407;-76
2023/12/03 01:22:51;;;;;;;0.20;0.20;;;;;;;;;;5073336;28;20673;-75
2023/12/03 01:25:17;;;;;;;0.30;0.30;;;;;;;;;;5072716;28;20189;-76
2023/12/03 01:27:43;;;;;;;0.40;0.40;;;;;;;;;;5073392;28;20049;-76
2023/12/03 01:30:09;;;;;;;0.40;0.40;;;;;;;;;;5074303;28;20067;-76
2023/12/03 01:32:35;;;;;;;0.38;0.38;;;;;;;;;;5073376;28;20048;-76
2023/12/03 01:35:02;;;;;;;0.30;0.30;;;;;;;;;;5087040;28;20515;-76
2023/12/03 01:37:28;;;;;;;0.40;0.40;;;;;;;;;;5093005;28;20051;-76
2023/12/03 01:39:54;;;;;;;0.30;0.30;;;;;;;;;;5092125;28;20044;-76
2023/12/03 01:42:20;;;;;;;0.30;0.30;;;;;;;;;;5092802;28;20047;-76
2023/12/03 01:44:46;;;;;;;;;;;;;;;;;;5092391;28;20044;-76
2023/12/03 01:47:14;;;;;;;0.30;0.30;;;-2.00;85.50;;;;;;5092291;28;20008;-76
2023/12/03 01:49:40;;;;;;;0.30;0.30;;;;;;;;;;5091701;28;20773;-77
2023/12/03 01:52:06;;;;;;;;;;;-1.50;85.40;;;;;;5092432;28;20040;-76
2023/12/03 01:54:38;;;;;;;0.38;0.38;;;;;;;;;;5091722;28;19977;-76
2023/12/03 01:57:04;;;;;;;0.30;0.30;;;;;;;;;;5082891;28;20125;-77
2023/12/03 01:59:31;;;;;;;0.63;0.50;;;;;;;;;;5072319;28;20040;-76
2023/12/03 02:01:57;;;;;;;0.38;0.38;;;;;;;;;;5072824;28;20128;-77
2023/12/03 02:04:23;;;;;;;0.30;0.30;;;;;;;;;;5072838;28;20189;-77
2023/12/03 02:06:50;;;;;;;0.30;0.30;;;;;;;;;;5072814;28;20155;-77
2023/12/03 02:09:16;;;;;;;0.30;0.30;;;;;;;;;;5072520;28;20450;-77
2023/12/03 02:11:46;;;;;;;0.22;0.22;;;;;;;;;;5072520;28;20053;-76
2023/12/03 02:14:12;;;;;;;0.30;0.30;;;;;;;;;;5072999;28;20044;-76
2023/12/03 02:16:38;;;;;;;0.40;0.40;;;;;;;;;;5072812;28;20045;-76
2023/12/03 02:19:04;;;;;;;0.55;0.55;;;;;;;;;;5071850;28;20051;-77
2023/12/03 02:21:30;;;;;;;0.30;0.30;;;;;;;;;;5072863;28;20059;-76
2023/12/03 02:23:56;;;;;;;0.30;0.30;;;;;;;;;;5073444;28;20052;-76
2023/12/03 02:26:22;;;;;;;0.40;0.40;;;;;;;;;;5073073;28;20043;-76
2023/12/03 02:28:48;;;;;;;0.38;0.38;;;;;;;;;;5072727;28;20040;-77
2023/12/03 02:31:15;;;;;;;0.35;0.35;;;;;;;;;;5072479;28;20133;-77
2023/12/03 02:33:43;;;;;;;0.63;0.63;;;;;;;;;;5072624;28;20083;-77
2023/12/03 02:36:09;;;;;;;0.30;0.30;;;;;;;;;;5082226;28;20044;-76
2023/12/03 02:38:35;;;;;;;0.30;0.30;;;;;;;;;;5090140;28;20040;-77
2023/12/03 02:41:01;;;;;;;0.38;0.38;;;;;;;;;;5080967;28;20044;-77
2023/12/03 02:43:27;;;;;;;0.40;0.40;;;;;;;;;;5084707;28;20496;-76
2023/12/03 02:45:53;;;;;;;0.40;0.40;;;;;;;;;;5082619;28;20047;-76
2023/12/03 02:48:19;;;;;;;0.30;0.30;;;;;;;;;;5091432;28;20480;-77
2023/12/03 02:50:46;;;;;;;0.30;0.30;;;;;;;;;;5091344;28;20569;-77
2023/12/03 02:53:12;;;;;;;1.33;0.57;;;;;;;;;;5091326;28;20507;-77
2023/12/03 02:55:38;;;;;;;0.40;0.40;;;;;;;;;;5080196;28;20399;-77
2023/12/03 02:58:04;;;;;;;0.47;0.47;;;;;;;;;;5070619;28;20044;-77
2023/12/03 03:00:30;;;;;;;0.30;0.30;;;;;;;;;;5091071;28;20048;-77
2023/12/03 03:02:56;;;;;;;0.38;0.38;;;;;;;;;;5088985;28;20048;-76
2023/12/03 03:05:22;;;;;;;0.20;0.20;;;;;;;;;;5091151;28;20055;-77
2023/12/03 03:07:48;;;;;;;0.30;0.30;;;;;;;;;;5089915;28;20442;-77
2023/12/03 03:10:14;;;;;;;0.30;0.30;;;;;;;;;;5090765;28;20711;-78
2023/12/03 03:12:40;;;;;;;0.30;0.30;;;;;;;;;;5090494;28;20048;-77
2023/12/03 03:15:06;;;;;;;0.30;0.30;;;;;;;;;;5089780;28;20055;-77
2023/12/03 03:17:32;;;;;;;0.22;0.22;;;;;;;;;;5090280;28;20044;-78
2023/12/03 03:19:58;;;;;;;0.55;0.55;;;;;;;;;;5090746;28;20040;-77
2023/12/03 03:22:24;;;;;;;0.30;0.30;;;;;;;;;;5090264;28;20091;-77
2023/12/03 03:24:52;;;;;;;0.45;0.45;;;;;;;;;;5090239;28;20040;-78
2023/12/03 03:27:18;;;;;;;0.30;0.30;;;;;;;;;;5089841;28;20050;-77
2023/12/03 03:29:44;;;;;;;0.30;0.30;;;;;;;;;;5089474;28;20139;-77
2023/12/03 03:32:10;;;;;;;0.30;0.30;;;;;;;;;;5085811;28;20044;-78
2023/12/03 03:34:36;;;;;;;0.50;0.50;;;;;;;;;;5114505;28;20522;-77
2023/12/03 03:37:02;;;;;;;0.55;0.50;;;;;;;;;;5088921;28;20484;-77
2023/12/03 03:39:28;;;;;;;0.40;0.40;;;;;;;;;;5123621;28;20403;-77
2023/12/03 03:41:54;;;;;;;0.52;0.30;;;;;;;;;;5090303;28;20055;-78
2023/12/03 03:44:20;;;;;;;0.30;0.30;;;;;;;;;;5089493;28;20048;-78
2023/12/03 03:46:46;;;;;;;0.30;0.30;;;;;;;;;;5085831;28;20048;-78
2023/12/03 03:49:12;;;;;;;0.22;0.22;;;;;;;;;;5070753;28;20060;-77
2023/12/03 03:51:38;;;;;;;0.30;0.30;;;;;;;;;;5069803;28;20903;-78
2023/12/03 03:54:04;;;;;;;0.30;0.30;;;;;;;;;;5069480;28;20508;-78
2023/12/03 03:56:31;;;;;;;0.30;0.30;;;;;;;;;;5071091;28;20127;-77
2023/12/03 03:58:57;;;;;;;0.40;0.40;;;;;;;;;;5071086;28;20044;-78
2023/12/03 04:01:23;;;;;;;0.40;0.40;;;;;;;;;;5071751;28;20127;-78
2023/12/03 04:03:49;;;;;;;0.32;0.32;;;;;;;;;;5071595;28;20396;-78
2023/12/03 04:06:15;;;;;;;0.55;0.55;;;;;;;;;;5070611;28;20119;-77
2023/12/03 04:08:41;;;;;;;0.30;0.30;;;;;;;;;;5071476;28;20063;-77
2023/12/03 04:11:07;;;;;;;0.30;0.30;;;;;;;;;;5069970;28;20071;-78
2023/12/03 04:13:33;;;;;;;0.35;0.35;;;;;;;;;;5071485;28;20052;-77
2023/12/03 04:15:59;;;;;;;0.40;0.40;;;;;;;;;;5071378;28;20051;-78
2023/12/03 04:18:26;;;;;;;0.43;0.43;;;;;;;;;;5070075;28;20054;-78
2023/12/03 04:20:51;;;;;;;;;;;;;;;;;;5070887;28;20098;-78
2023/12/03 04:23:17;;;;;;;0.30;0.30;;;;;;;;;;5070030;28;19920;-78
2023/12/03 04:25:43;;;;;;;0.40;0.40;;;;;;;;;;5071997;28;20119;-78
2023/12/03 04:28:10;;;;;;;0.50;0.50;;;;;;;;;;5053586;28;20057;-78
2023/12/03 04:30:36;;;;;;;0.80;0.80;;;;;;;;;;5070730;28;20048;-77
2023/12/03 04:33:02;;;;;;;0.50;0.38;;;;;;;;;;5071015;28;20102;-77
2023/12/03 04:35:28;;;;;;;1.40;1.30;;;;;;;;;;5072478;28;20046;-77
2023/12/03 04:37:54;;;;;;;0.50;0.50;;;;;;;;;;5085269;28;20083;-78
2023/12/03 04:40:20;;;;;;;0.40;0.40;;;;;;;;;;5088369;28;20059;-78
2023/12/03 04:42:46;;;;;;;0.40;0.40;;;;;;;;;;5073992;28;20098;-77
2023/12/03 04:45:12;;;;;;;0.80;0.80;;;;;;;;;;5077164;28;20143;-78
2023/12/03 04:47:38;;;;;;;0.47;0.47;;;;;;;;;;5082152;28;20044;-78
2023/12/03 04:50:04;;;;;;;0.63;0.50;;;;;;;;;;5072336;28;20130;-78
2023/12/03 04:52:30;;;;;;;0.38;0.38;;;;;;;;;;5073895;28;20127;-78
2023/12/03 04:54:56;;;;;;;0.40;0.40;;;;;;;;;;5086613;28;20123;-77
2023/12/03 04:57:22;;;;;;;0.70;0.70;;;;;;;;;;5085345;28;20062;-78
2023/12/03 04:59:48;;;;;;;0.85;0.82;;;;;;;;;;5093132;28;20044;-78
2023/12/03 05:02:14;;;;;;;0.40;0.40;;;;;;;;;;5092445;28;20051;-78
2023/12/03 05:04:40;;;;;;;0.45;0.45;;;;;;;;;;5092522;28;20055;-77
2023/12/03 05:07:06;;;;;;;0.47;0.47;;;;;;;;;;5093060;28;20051;-78
2023/12/03 05:09:32;;;;;;;0.63;0.63;;;;;;;;;;5092479;28;20059;-77
2023/12/03 05:11:58;;;;;;;0.50;0.43;;;;;;;;;;5093030;28;20187;-77
2023/12/03 05:14:24;;;;;;;0.85;0.85;;;;;;;;;;5092481;28;20449;-77
2023/12/03 05:16:51;;;;;;;0.30;0.30;;;;;;;;;;5091795;28;20075;-78
2023/12/03 05:19:17;;;;;;;0.30;0.30;;;;;;;;;;5091990;28;20506;-77
2023/12/03 05:21:43;;;;;;;0.45;0.45;;;;;;;;;;5092866;28;20460;-77
2023/12/03 05:24:09;;;;;;;0.50;0.50;;;;;;;;;;5092648;28;20043;-77
2023/12/03 05:26:35;;;;;;;0.52;0.52;;;;;;;;;;5091947;28;20168;-78
2023/12/03 05:29:01;;;;;;;0.40;0.40;;;;;;;;;;5087691;28;20037;-77
2023/12/03 05:31:28;;;;;;;0.47;0.47;;;;;;;;;;5072837;28;20056;-77
2023/12/03 05:33:54;;;;;;;0.30;0.30;;;;;;;;;;5073474;28;20048;-77
2023/12/03 05:36:24;;;;;;;0.60;0.60;;;;;;;;;;5106532;27;20127;-77
2023/12/03 05:38:52;;;;;;;0.68;0.68;;;;;;;;;;5071875;28;20048;-77
2023/12/03 05:41:18;;;;;;;1.88;1.38;;;;;;;;;;5072715;28;20107;-77
2023/12/03 05:43:45;;;;;;;0.50;0.50;;;;;;;;;;5061370;28;20047;-77
2023/12/03 05:46:11;;;;;;;0.40;0.40;;;;;;;;;;5091750;28;20373;-77
2023/12/03 05:48:37;;;;;;;0.98;0.73;;;;;;;;;;5092193;28;20101;-77
2023/12/03 05:51:08;;;;;;;0.95;0.73;;;;;;;;;;5092385;28;20056;-77
2023/12/03 05:53:34;;;;;;;0.55;0.52;;;;;;;;;;5085581;28;20052;-77
2023/12/03 05:56:00;;;;;;;0.88;0.88;;;;;;;;;;5072452;28;20104;-77
2023/12/03 05:58:26;;;;;;;1.23;1.15;;;;;;;;;;5083916;28;20094;-76
2023/12/03 06:00:52;;;;;;;0.45;0.45;;;;;;;;;;5083940;28;20056;-77
2023/12/03 06:03:18;;;;;;;0.57;0.57;;;;;;;;;;5091923;28;20071;-76
2023/12/03 06:05:44;;;;;;;0.95;0.95;;;;;;;;;;5090741;28;20036;-76
2023/12/03 06:08:10;;;;;;;0.90;0.82;;;;;;;;;;5084513;28;20105;-76
2023/12/03 06:10:36;;;;;;;0.88;0.65;;;;;;;;;;5054153;28;20048;-77
2023/12/03 06:13:02;;;;;;;0.73;0.73;;;;;;;;;;5071778;28;20041;-76
2023/12/03 06:15:28;;;;;;;1.13;0.75;;;;;;;;;;5071259;28;20048;-76
2023/12/03 06:17:54;;;;;;;2.75;1.80;;;;;;;;;;5091653;28;20047;-76
2023/12/03 06:20:20;;;;;;;0.75;0.75;;;;;;;;;;5089015;28;20051;-76
2023/12/03 06:22:46;;;;;;;0.88;0.88;;;;;;;;;;5079603;28;20141;-76
2023/12/03 06:25:12;;;;;;;1.77;1.02;;;;;;;;;;5076714;28;20044;-76
2023/12/03 06:27:40;;;;;;;0.60;0.60;;;;;;;;;;5071583;28;20056;-76
2023/12/03 06:30:06;;;;;;;2.03;0.95;;;;;;;;;;5071080;28;20048;-76
2023/12/03 06:32:32;;;;;;;2.10;1.80;;;;;;;;;;5070376;28;20052;-75
2023/12/03 06:34:58;;;;;;;1.38;1.23;;;;;;;;;;5066869;28;20050;-76
2023/12/03 06:37:24;;;;;;;0.40;0.40;;;;;;;;;;5089987;28;20093;-75
2023/12/03 06:39:50;;;;;;;0.98;0.98;;;;;;;;;;5090363;28;20044;-75
2023/12/03 06:42:16;;;;;;;1.27;1.17;;;;;;;;;;5091075;28;20151;-75
2023/12/03 06:44:42;;;;;;;0.35;0.35;;;;;;;;;;5088876;28;20059;-76
2023/12/03 06:47:08;;;;;;;0.60;0.60;;;;;;;;;;5090473;28;20048;-75
2023/12/03 06:49:35;;;;;;;1.92;1.33;;;;;;;;;;5089803;28;20054;-75
2023/12/03 06:52:01;;;;;;;0.60;0.60;;;;;;;;;;5073035;28;20387;-75
2023/12/03 06:54:27;;;;;;;0.63;0.63;;;;;;;;;;5090398;28;20044;-75
2023/12/03 06:56:53;;;;;;;0.98;0.43;;;;;;;;;;5084066;28;20080;-75
2023/12/03 06:59:19;;;;;;;0.70;0.70;;;;;;;;;;5068725;28;20044;-76
2023/12/03 07:01:45;;;;;;;0.70;0.70;;;;;;;;;;5069424;28;20090;-76
2023/12/03 07:04:11;;;;;;;0.65;0.65;;;;;;;;;;5071054;28;20044;-75
2023/12/03 07:06:37;;;;;;;0.75;0.60;;;;;;;;;;5071414;28;20040;-75
2023/12/03 07:09:03;;;;;;;0.70;0.70;;;;;;;;;;5070708;28;20103;-75
2023/12/03 07:11:29;;;;;;;0.40;0.40;;;;;;;;;;5069962;28;20050;-74
2023/12/03 07:13:56;;;;;;;1.77;1.50;;;;;;;;;;5083467;28;20052;-74
2023/12/03 07:16:22;;;;;;;0.52;0.52;;;;;;;;;;5090889;28;20101;-75
2023/12/03 07:18:48;;;;;;;1.00;0.82;;;;;;;;;;5061013;28;20076;-75
2023/12/03 07:21:14;;;;;;;1.75;1.65;;;;;;;;;;5084787;28;20044;-75
2023/12/03 07:23:40;;;;;;;2.00;1.55;;;;;;;;;;5071549;28;20052;-74
2023/12/03 07:26:10;;;;;;;1.77;1.65;;;;;;;;;;5083840;28;20071;-75
2023/12/03 07:28:37;;;;;;;0.63;0.63;;;;;;;;;;5069153;28;20480;-74
2023/12/03 07:31:03;;;;;;;;;;;;;;;;;;5082928;28;20044;-76
2023/12/03 07:33:29;;;;;;;0.80;0.77;;;;;;;;;;5071211;28;20565;-74
2023/12/03 07:35:55;;;;;;;5.40;1.30;;;;;;;;;;5089335;28;20400;-74
2023/12/03 07:38:21;;;;;;;2.05;1.88;;;;;;;;;;5082634;28;20147;-73
2023/12/03 07:40:47;;;;;;;1.15;1.15;;;;;;;;;;5089887;28;20051;-73
2023/12/03 07:43:13;;;;;;;0.52;0.52;;;;;;;;;;5083892;28;20052;-73
2023/12/03 07:45:39;;;;;;;0.45;0.45;;;;;;;;;;5090057;28;20040;-74
2023/12/03 07:48:05;;;;;;;0.40;0.40;;;;;;;;;;5074914;28;20514;-75
2023/12/03 07:50:32;;;;;;;0.45;0.45;;;;;;;;;;5088456;28;20393;-74
2023/12/03 07:52:59;;;;;;;1.73;1.63;;;;;;;;;;5086704;28;20124;-73
2023/12/03 07:55:25;;;;;;;2.10;0.90;;;;;;;;;;5090236;28;20056;-75
2023/12/03 07:57:51;;;;;;;1.00;1.00;;;;;;;;;;5089917;28;20188;-73
2023/12/03 08:00:17;;;;;;;0.47;0.47;;;;;;;;;;5090425;28;20048;-73
2023/12/03 08:02:43;;;;;;;1.42;1.35;;;;;;;;;;5071721;28;20054;-73
2023/12/03 08:05:09;;;;;;;1.75;1.65;;;;;;;;;;5090229;28;20050;-73
2023/12/03 08:07:35;;;;;;;3.45;1.38;;;;;;;;;;5090147;28;20127;-73
2023/12/03 08:10:02;;;;;;;2.63;1.50;;;;;;;;;;5083016;28;20060;-73
2023/12/03 08:12:29;;;;;;;0.52;0.52;;;;;;;;;;5089669;28;20101;-72
2023/12/03 08:14:55;;;;;;;1.55;1.17;;;;;;;;;;5093971;28;20113;-73
2023/12/03 08:17:21;;;;;;;;;;;-1.80;99.90;;;;;;5070776;28;20446;-71
2023/12/03 08:19:47;;;;;;;0.93;0.93;;;;;;;;;;5072616;28;19925;-73
2023/12/03 08:22:13;;;;;;;0.40;0.40;;;;;;;;;;5074756;28;20078;-71
2023/12/03 08:24:39;;;;;;;0.80;0.80;;;;;;;;;;5075046;28;20053;-70
2023/12/03 08:27:05;;;;;;;1.77;1.52;;;;;;;;;;5075803;28;20044;-74
2023/12/03 08:29:32;;;;;;;0.63;0.63;;;;;;;;;;5074947;28;20127;-70
2023/12/03 08:31:58;;;;;;;3.70;2.10;;;;;;;;;;5074944;28;20059;-72
2023/12/03 08:34:25;;;;;;;0.68;0.68;;;;;;;;;;5083464;28;20075;-71
2023/12/03 08:36:50;;;;;;;;;;;1.20;99.90;;;;;;5071536;28;20052;-71
2023/12/03 08:39:16;;;;;;;1.90;1.38;;;;;;;;;;5093219;28;20303;-75
2023/12/03 08:41:42;;;;;;;1.05;1.05;;;;;;;;;;5091226;28;20048;-72
2023/12/03 08:44:08;;;;;;;0.55;0.55;;;;;;;;;;5076905;28;20044;-78
2023/12/03 08:46:34;;;;;;;2.65;2.42;;;;;;;;;;5070119;28;20099;-72
2023/12/03 08:49:00;;;;;;;1.15;1.08;;;;;;;;;;5086699;28;20083;-75
2023/12/03 08:51:26;;;;;;;1.10;1.00;;;;;;;;;;5085346;28;20055;-72
2023/12/03 08:53:53;;;;;;;1.20;0.82;;;;;;;;;;5087241;28;20422;-73
2023/12/03 08:56:19;;;;;;;1.48;1.42;;;;;;;;;;5086928;28;20488;-72
2023/12/03 08:58:45;;;;;;;1.45;1.38;;;;;;;;;;5088945;28;20491;-76
2023/12/03 09:01:11;;;;;;;2.53;1.70;;;;;;;;;;5086183;28;20484;-74
2023/12/03 09:03:40;;;;;;;1.27;1.13;;;;;;;;;;5083812;28;20051;-73
2023/12/03 09:06:06;;;;;;;2.90;1.35;;;;;;;;;;5087986;28;20044;-74
2023/12/03 09:08:32;;;;;;;1.15;1.15;;;;;;;;;;5089957;28;20056;-74
2023/12/03 09:10:59;;;;;;;0.63;0.63;;;;;;;;;;5089642;28;20048;-74
2023/12/03 09:13:25;;;;;;;0.45;0.45;;;;;;;;;;5073616;28;20076;-73
2023/12/03 09:15:51;;;;;;;1.65;1.02;;;;;;;;;;5090137;28;20400;-74
2023/12/03 09:18:17;;;;;;;1.27;0.95;;;;;;;;;;5092564;28;20048;-75
2023/12/03 09:20:43;;;;;;;5.80;1.80;;;;;;;;;;5090230;28;20476;-74
2023/12/03 09:23:10;;;;;;;1.48;1.38;;;;;;;;;;5091941;28;20047;-73
2023/12/03 09:25:36;;;;;;;13.48;2.22;;;;;;;;;;5091177;28;20599;-74
2023/12/03 09:28:02;;;;;;;0.68;0.68;;;;;;;;;;5092301;28;20048;-74
2023/12/03 09:30:28;;;;;;;2.53;1.00;;;;;;;;;;5091455;28;20051;-73
2023/12/03 09:32:54;;;;;;;1.80;1.70;;;;;;;;;;5078813;28;20408;-74
2023/12/03 09:35:20;;;;;;;0.98;0.98;;;;;;;;;;5072865;28;20499;-74
2023/12/03 09:37:46;;;;;;;;;;;4.10;99.90;;;;;;5072821;28;20048;-74
2023/12/03 09:40:12;;;;;;;6.70;2.22;;;;;;;;;;5072301;28;19925;-74
2023/12/03 09:42:40;;;;;;;2.95;1.38;;;;;;;;;;5072359;28;20048;-73
2023/12/03 09:45:09;;;;;;;2.33;1.60;;;;;;;;;;5072480;28;20036;-74
2023/12/03 09:47:37;;;;;;;2.10;2.00;;;;;;;;;;5072335;28;20059;-74
2023/12/03 09:50:06;;;;;;;9.43;3.63;;;;;;;;;;5090378;28;20423;-74
2023/12/03 09:52:36;;;;;;;3.75;2.08;;;;;;;;;;5091582;28;20440;-74
2023/12/03 09:55:03;;;;;;;2.55;2.35;;;;;;;;;;5072020;28;20527;-75
2023/12/03 09:57:29;;;;;;;0.65;0.65;;;;;;;;;;5071278;28;20098;-73
2023/12/03 10:00:00;;;;;;;4.32;2.08;;;;;;;;;;5072508;28;20052;-73
2023/12/03 10:02:29;;;;;;;1.35;1.25;;;;;;;;;;5072884;28;20052;-74
2023/12/03 10:04:58;;;;;;;1.73;1.55;;;;;;;;;;5072763;28;20431;-73
2023/12/03 10:07:28;;;;;;;4.82;2.33;;;;;;;;;;5071433;28;20064;-74
2023/12/03 10:09:57;;;;;;;2.90;2.42;;;;;;;;;;5073294;28;20091;-73
2023/12/03 10:12:25;;;;;;;3.20;1.77;;;;;;;;;;5072514;28;20040;-74
2023/12/03 10:14:51;;;;;;;2.15;1.95;;;;;;;;;;5072105;28;20048;-74
2023/12/03 10:17:21;;;;;;;2.10;1.92;;;;;;;;;;5072333;28;20044;-74
2023/12/03 10:19:47;;;;;;;1.95;1.67;;;;;;;;;;5071761;28;20052;-73
2023/12/03 10:22:13;;;;;;;2.28;2.08;;;;;;;;;;5071930;28;20056;-74
2023/12/03 10:24:47;;;;;;;3.92;1.38;;;;;;;;;;5071645;28;20052;-74
2023/12/03 10:27:13;;;;;;;2.45;1.85;;;;;;;;;;5071448;28;20120;-74
2023/12/03 10:29:39;;;;;;;6.78;3.03;;;;;;;;;;5071329;28;20056;-74
2023/12/03 10:32:07;;;;;;;2.97;2.35;;;;;;;;;;5071460;28;20048;-74
2023/12/03 10:34:33;;;;;;;8.00;2.53;;;;;;;;;;5070981;28;20051;-74
2023/12/03 10:37:01;;;;;;;1.65;1.55;;;;;;;;;;5088123;28;20044;-74
2023/12/03 10:39:27;;;;;;;0.50;0.50;;;;;;;;;;5091421;28;20060;-74
2023/12/03 10:41:55;;;;;;;4.90;2.75;;;;;;;;;;5086320;28;20503;-74
2023/12/03 10:44:23;;;;;;;2.72;1.58;;;;;;;;;;5069849;28;20048;-74
2023/12/03 10:46:50;;;;;;;4.95;3.45;;;;;;;;;;5070575;28;20036;-75
2023/12/03 10:49:16;;;;;;;;;;;;;;;;;;5071690;28;20142;-75
2023/12/03 10:51:43;;;;;;;3.33;2.28;;;;;;;;;;5071538;28;19971;-75
2023/12/03 10:54:09;;;;;;;1.17;1.15;;;;;;;;;;5071977;28;20045;-75
2023/12/03 10:56:35;;;;;;;;;;;;;;;;;;5089495;28;20418;-75
2023/12/03 10:59:09;;;;;;;2.20;2.03;;;;;;;;;;5090508;28;19924;-75
2023/12/03 11:01:37;;;;;;;7.93;3.97;;;;;;;;;;5063582;28;20063;-75
2023/12/03 11:04:09;;;;;;;3.40;2.85;;;;;;;;;;5088665;28;20054;-75
2023/12/03 11:06:36;;;;;;;5.22;2.08;;;;;;;;;;5090704;28;20040;-75
2023/12/03 11:09:02;;;;;;;2.00;1.35;;;;;;;;;;5089983;28;20147;-75
2023/12/03 11:11:28;;;;;;;;;;;;;;;;;;5089726;28;20476;-75
2023/12/03 11:13:56;;;;;;;4.28;3.97;;;;;;;;;;5090658;28;19920;-76
2023/12/03 11:16:23;;;;;;;1.73;1.70;;;5.20;99.90;;;;;;5090458;28;20589;-75
2023/12/03 11:19:16;;;;;;;3.38;1.85;;;;;;;;;;5075002;28;20070;-76
2023/12/03 11:21:46;;;;;;;1.80;1.70;;;;;;;;;;5069284;28;20126;-75
2023/12/03 11:24:27;;;;;;;1.67;1.58;;;;;;;;;;5070941;28;20079;-74
2023/12/03 11:26:53;;;;;;;3.90;3.25;;;;;;;;;;5069417;28;20056;-75
2023/12/03 11:29:39;;;;;;;5.50;3.42;;;;;;;;;;5070814;28;20044;-75
2023/12/03 11:32:05;;;;;;;6.07;1.73;;;;;;;;;;5070266;28;20055;-75
2023/12/03 11:34:31;;;;;;;1.88;1.77;;;4.30;99.90;;;;;;5070307;28;20106;-75
2023/12/03 11:36:57;;;;;;;9.87;3.87;;;;;;;;;;5070565;28;20048;-75
2023/12/03 11:39:23;;;;;;;8.43;3.13;;;;;;;;;;5070327;28;20283;-75
2023/12/03 11:41:59;;;;;;;3.53;3.13;;;;;;;;;;5070155;28;20044;-74
2023/12/03 11:44:25;;;;;;;4.57;3.47;;;;;;;;;;5071034;28;20098;-75
2023/12/03 11:47:07;;;;;;;6.07;3.08;;;;;;;;;;5075300;28;20056;-75
2023/12/03 11:49:35;;;;;;;3.80;2.45;;;;;;;;;;5077915;28;20044;-75
2023/12/03 11:52:01;;;;;;;4.75;2.35;;;;;;;;;;5079636;28;20127;-81
2023/12/03 11:54:39;;;;;;;0.85;0.85;;;-0.10;91.80;;;;;;5075624;28;20040;-74
2023/12/03 11:57:14;;;;;;;1.65;1.15;;;;;;;;;;5074418;28;20053;-71
2023/12/03 11:59:41;;;;;;;4.82;2.38;;;;;;;;;;5074870;28;20046;-72
2023/12/03 12:02:07;;;;;;;1.58;1.48;;;;;;;;;;5072215;28;20134;-76
2023/12/03 12:04:33;;;;;;;1.77;1.65;;;;;;;;;;5073114;28;20056;-69
2023/12/03 12:06:59;;;;;;;3.05;2.60;;;;;;;;;;5073984;28;20055;-71
2023/12/03 12:09:25;;;;;;;4.18;2.50;;;;;;;;;;5072933;28;20060;-72
2023/12/03 12:11:51;;;;;;;1.23;1.23;;;;;;;;;;5074557;28;20048;-73
2023/12/03 12:14:20;;;;;;;3.20;1.88;;;;;;;;;;5074792;28;20080;-71
2023/12/03 12:16:46;;;;;;;2.70;1.92;;;;;;;;;;5073007;28;20044;-73
2023/12/03 12:19:13;;;;;;;1.73;1.65;;;;;;;;;;5074773;28;20082;-71
2023/12/03 12:21:56;;;;;;;1.10;1.00;;;;;;;;;;5073967;28;20140;-72
2023/12/03 12:24:22;;;;;;;3.22;2.35;;;;;;;;;;5072004;28;20131;-71
2023/12/03 12:26:49;;;;;;;1.55;1.45;;;;;;;;;;5074830;28;20063;-68
2023/12/03 12:29:15;;;;;;;3.60;2.60;;;;;;;;;;5074028;28;20044;-72
2023/12/03 12:31:42;;;;;;;3.47;3.17;;;;;;;;;;5073959;28;20060;-73
2023/12/03 12:34:10;;;;;;;2.60;2.40;;;;;;;;;;5073127;28;20490;-72
2023/12/03 12:36:35;;;;;;;8.10;3.33;;;0.10;68.80;;;;;;5072968;28;20123;-72
2023/12/03 12:39:01;;;;;;;14.13;3.37;;;;;;;;;;5073008;28;20138;-73
2023/12/03 12:41:41;;;;;;;2.03;1.73;;;;;;;;;;5080756;28;20620;-80
2023/12/03 12:44:07;;;;;;;3.90;2.08;;;;;;;;;;5083198;28;20137;-72
2023/12/03 12:46:34;;;;;;;1.63;1.00;;;;;;;;;;5082579;28;20040;-73
2023/12/03 12:49:13;;;;;;;0.90;0.90;;;;;;;;;;5064716;28;20082;-72
2023/12/03 12:51:39;;;;;;;2.15;1.95;;;;;;;;;;5083781;28;20047;-72
2023/12/03 12:54:07;;;;;;;3.13;1.60;;;;;;;;;;5080978;28;20046;-72
2023/12/03 12:56:33;;;;;;;4.57;2.53;;;;;;;;;;5084274;28;20048;-73
2023/12/03 12:58:59;;;;;;;1.98;1.88;;;;;;;;;;5080559;28;20040;-71
2023/12/03 13:01:25;;;;;;;3.47;2.17;;;;;;;;;;5085199;28;20044;-71
2023/12/03 13:03:51;;;;;;;2.03;1.85;;;;;;;;;;5062757;28;20049;-71
2023/12/03 13:06:20;;;;;;;3.83;2.85;;;;;;;;;;5085134;28;20078;-72
2023/12/03 13:08:46;;;;;;;1.73;1.63;;;;;;;;;;5079253;28;20061;-72
2023/12/03 13:11:13;;;;;;;2.97;2.28;;;;;;;;;;5085999;28;20080;-72
2023/12/03 13:13:39;;;;;;;7.15;1.98;;;;;;;;;;5072321;28;20048;-72
2023/12/03 13:16:06;;;;;;;2.78;2.53;;;;;;;;;;5085063;28;20040;-72
2023/12/03 13:18:31;;;;;;;4.82;3.10;;;5.00;1.00;;;;;;5078466;28;20501;-72
2023/12/03 13:20:57;;;;;;;2.15;2.05;;;3.50;1.00;;;;;;5084091;28;20119;-71
2023/12/03 13:23:23;;;;;;;2.28;1.77;;;;;;;;;;5078868;28;20079;-71
2023/12/03 13:25:49;;;;;;;3.42;1.98;;;;;;;;;;5084055;28;20507;-72
2023/12/03 13:28:15;;;;;;;1.95;1.75;;;2.80;1.00;;;;;;5078357;28;20137;-72
2023/12/03 13:30:41;;;;;;;1.67;1.45;;;;;;;;;;5083866;28;20697;-71
2023/12/03 13:33:07;;;;;;;5.35;2.90;;;;;;;;;;5073118;28;20080;-71
2023/12/03 13:35:33;;;;;;;2.08;1.90;;;;;;;;;;5090728;28;20051;-71
2023/12/03 13:37:59;;;;;;;0.93;0.93;;;;;;;;;;5092087;28;20051;-71
2023/12/03 13:40:25;;;;;;;2.38;1.75;;;;;;;;;;5091725;28;20048;-72
2023/12/03 13:42:52;;;;;;;4.10;3.35;;;;;;;;;;5092548;28;20052;-71
2023/12/03 13:45:19;;;;;;;7.38;3.28;;;;;;;;;;5091676;28;20509;-71
2023/12/03 13:47:45;;;;;;;5.78;1.88;;;;;;;;;;5092298;28;20040;-71
2023/12/03 13:50:11;;;;;;;1.45;1.35;;;;;;;;;;5091268;28;20044;-72
2023/12/03 13:52:37;;;;;;;3.13;2.45;;;;;;;;;;5092040;28;20048;-71
2023/12/03 13:55:03;;;;;;;;;;;2.60;10.10;;;;;;5091738;28;20553;-71
2023/12/03 13:57:29;;;;;;;2.08;1.98;;;;;;;;;;5092394;28;19924;-72
2023/12/03 13:59:55;;;;;;;0.90;0.90;;;;;;;;;;5091276;28;20082;-71
2023/12/03 14:02:21;;;;;;;4.95;1.95;;;;;;;;;;5092174;28;20087;-71
2023/12/03 14:04:47;;;;;;;2.70;2.17;;;;;;;;;;5090825;28;20048;-71
2023/12/03 14:07:13;;;;;;;1.73;1.63;;;;;;;;;;5091562;28;20415;-71
2023/12/03 14:09:39;;;;;;;3.03;2.50;;;;;;;;;;5091470;28;20397;-70
2023/12/03 14:12:06;;;;;;;1.42;1.35;;;;;;;;;;5079539;28;20124;-71
2023/12/03 14:14:32;;;;;;;6.57;2.85;;;;;;;;;;5077779;28;20052;-71
2023/12/03 14:16:59;;;;;;;2.03;1.92;;;;;;;;;;5092271;28;20044;-71
2023/12/03 14:19:25;;;;;;;2.60;2.40;;;;;;;;;;5091296;28;20135;-71
2023/12/03 14:21:51;;;;;;;4.07;2.08;;;;;;;;;;5092021;28;20051;-70
2023/12/03 14:24:17;;;;;;;1.90;1.80;;;;;;;;;;5090987;28;20043;-70
2023/12/03 14:26:43;;;;;;;2.67;2.30;;;;;;;;;;5091986;28;20092;-70
2023/12/03 14:29:10;;;;;;;;;;;;;;;;;;5091455;28;20369;-70
2023/12/03 14:31:36;;;;;;;2.58;1.88;;;;;;;;;;5091814;28;19924;-73
2023/12/03 14:34:02;;;;;;;2.72;2.38;;;;;;;;;;5071666;28;20044;-70
2023/12/03 14:36:28;;;;;;;;;;;-0.80;30.80;;;;;;5072031;28;20520;-70
2023/12/03 14:38:54;;;;;;;2.88;2.58;;;;;;;;;;5090758;28;20006;-70
2023/12/03 14:41:20;;;;;;;12.93;1.85;;;;;;;;;;5090493;28;20048;-71